createdAt,value
2023-02-08T00:00:00.044Z,-7.35
2023-02-08T00:02:28.438Z,-7.37
2023-02-08T00:04:56.845Z,-7.38
2023-02-08T00:07:25.877Z,-7.39
2023-02-08T00:09:53.723Z,-7.41
2023-02-08T00:12:22.420Z,-7.41
2023-02-08T00:14:50.508Z,-7.40
2023-02-08T00:17:18.917Z,-7.41
2023-02-08T00:19:47.319Z,-7.42
2023-02-08T00:22:15.907Z,-7.45
2023-02-08T00:24:44.217Z,-7.49
2023-02-08T00:27:12.682Z,-7.51
2023-02-08T00:29:43.831Z,-7.52
2023-02-08T00:32:12.540Z,-7.53
2023-02-08T00:34:40.844Z,-7.54
2023-02-08T00:37:09.274Z,-7.55
2023-02-08T00:39:37.710Z,-7.57
2023-02-08T00:42:12.145Z,-7.58
2023-02-08T00:44:42.598Z,-7.59
2023-02-08T00:47:12.689Z,-7.59
2023-02-08T00:49:42.716Z,-7.61
2023-02-08T00:52:12.820Z,-7.61
2023-02-08T00:54:42.913Z,-7.62
2023-02-08T00:57:14.878Z,-7.62
2023-02-08T00:59:44.932Z,-7.65
2023-02-08T01:02:16.009Z,-7.67
2023-02-08T01:04:46.102Z,-7.68
2023-02-08T01:07:16.162Z,-7.68
2023-02-08T01:09:46.220Z,-7.68
2023-02-08T01:12:17.044Z,-7.69
2023-02-08T01:14:47.391Z,-7.69
2023-02-08T01:17:17.503Z,-7.70
2023-02-08T01:19:47.593Z,-7.72
2023-02-08T01:22:17.692Z,-7.73
2023-02-08T01:24:47.841Z,-7.75
2023-02-08T01:27:17.910Z,-7.76
2023-02-08T01:29:47.942Z,-7.75
2023-02-08T01:32:17.985Z,-7.75
2023-02-08T01:34:48.000Z,-7.75
2023-02-08T01:37:18.132Z,-7.76
2023-02-08T01:39:48.355Z,-7.78
2023-02-08T01:42:19.863Z,-7.78
2023-02-08T01:45:20.831Z,-7.80
2023-02-08T01:48:13.173Z,-7.81
2023-02-08T01:51:24.643Z,-7.81
2023-02-08T01:54:01.257Z,-7.82
2023-02-08T01:56:41.287Z,-7.82
2023-02-08T01:59:36.973Z,-7.83
2023-02-08T02:02:17.521Z,-7.83
2023-02-08T02:04:51.113Z,-7.85
2023-02-08T02:07:29.932Z,-7.87
2023-02-08T02:10:30.060Z,-7.89
2023-02-08T02:13:14.326Z,-7.90
2023-02-08T02:15:47.453Z,-7.91
2023-02-08T02:18:34.761Z,-7.92
2023-02-08T02:21:56.953Z,-7.92
2023-02-08T02:25:48.777Z,-7.92
2023-02-08T02:28:37.932Z,-7.92
2023-02-08T02:32:03.497Z,-7.93
2023-02-08T02:35:13.352Z,-7.91
2023-02-08T02:38:31.464Z,-7.90
2023-02-08T02:41:16.153Z,-7.93
2023-02-08T02:43:58.757Z,-7.97
2023-02-08T02:46:50.979Z,-7.95
2023-02-08T02:49:44.426Z,-7.93
2023-02-08T02:53:14.187Z,-7.90
2023-02-08T02:56:18.367Z,-7.90
2023-02-08T02:58:53.127Z,-7.89
2023-02-08T03:01:30.155Z,-7.90
2023-02-08T03:03:58.957Z,-7.90
2023-02-08T03:07:15.887Z,-7.90
2023-02-08T03:10:39.747Z,-7.90
2023-02-08T03:13:57.637Z,-7.90
2023-02-08T03:16:50.062Z,-7.93
2023-02-08T03:19:48.969Z,-7.94
2023-02-08T03:22:51.424Z,-7.97
2023-02-08T03:25:47.489Z,-7.99
2023-02-08T03:29:02.779Z,-8.01
2023-02-08T03:31:50.933Z,-8.03
2023-02-08T03:34:58.154Z,-8.03
2023-02-08T03:38:03.204Z,-8.04
2023-02-08T03:40:42.169Z,-8.05
2023-02-08T03:43:23.336Z,-8.06
2023-02-08T03:46:13.068Z,-8.05
2023-02-08T03:48:59.023Z,-8.03
2023-02-08T03:51:39.108Z,-8.02
2023-02-08T03:54:22.530Z,-8.04
2023-02-08T03:57:19.598Z,-8.06
2023-02-08T04:00:05.993Z,-8.05
2023-02-08T04:03:00.673Z,-8.06
2023-02-08T04:05:30.812Z,-8.06
2023-02-08T04:08:01.392Z,-8.05
2023-02-08T04:10:31.472Z,-8.03
2023-02-08T04:13:01.512Z,-8.01
2023-02-08T04:15:31.752Z,-7.99
2023-02-08T04:18:01.848Z,-7.99
2023-02-08T04:20:32.316Z,-7.97
2023-02-08T04:23:02.375Z,-7.95
2023-02-08T04:25:32.414Z,-7.95
2023-02-08T04:28:00.991Z,-7.94
2023-02-08T04:30:29.384Z,-7.87
2023-02-08T04:33:00.084Z,-7.84
2023-02-08T04:35:29.375Z,-7.82
2023-02-08T04:37:57.520Z,-7.83
2023-02-08T04:40:25.949Z,-7.85
2023-02-08T04:42:54.330Z,-7.86
2023-02-08T04:45:22.778Z,-7.90
2023-02-08T04:47:51.614Z,-7.91
2023-02-08T04:50:21.688Z,-7.86
2023-02-08T04:52:51.844Z,-7.79
2023-02-08T04:55:22.368Z,-7.80
2023-02-08T04:57:52.744Z,-7.84
2023-02-08T05:00:22.852Z,-7.89
2023-02-08T05:02:59.185Z,-7.90
2023-02-08T05:05:29.231Z,-7.93
2023-02-08T05:08:00.058Z,-7.93
2023-02-08T05:10:30.377Z,-7.93
2023-02-08T05:13:00.626Z,-7.87
2023-02-08T05:15:30.683Z,-7.87
2023-02-08T05:18:00.687Z,-7.87
2023-02-08T05:20:30.789Z,-7.87
2023-02-08T05:23:01.258Z,-7.88
2023-02-08T05:25:31.427Z,-7.92
2023-02-08T05:28:01.599Z,-7.93
2023-02-08T05:30:31.838Z,-7.94
2023-02-08T05:33:00.185Z,-7.94
2023-02-08T05:35:28.571Z,-7.94
2023-02-08T05:37:56.945Z,-7.95
2023-02-08T05:40:25.416Z,-7.96
2023-02-08T05:42:53.801Z,-7.97
2023-02-08T05:45:22.191Z,-7.97
2023-02-08T05:47:50.742Z,-7.98
2023-02-08T05:50:19.221Z,-8.01
2023-02-08T05:52:47.538Z,-8.01
2023-02-08T05:55:16.065Z,-7.99
2023-02-08T05:57:44.374Z,-8.00
2023-02-08T06:00:13.882Z,-8.00
2023-02-08T06:02:41.206Z,-8.00
2023-02-08T06:05:09.603Z,-8.00
2023-02-08T06:07:38.049Z,-7.99
2023-02-08T06:10:07.849Z,-7.96
2023-02-08T06:12:38.068Z,-7.74
2023-02-08T06:15:06.786Z,-7.80
2023-02-08T06:17:34.712Z,-7.84
2023-02-08T06:20:03.424Z,-7.86
2023-02-08T06:22:31.923Z,-7.86
2023-02-08T06:24:59.971Z,-7.83
2023-02-08T06:27:28.666Z,-7.76
2023-02-08T06:29:56.811Z,-7.76
2023-02-08T06:32:26.299Z,-7.75
2023-02-08T06:34:53.781Z,-7.74
2023-02-08T06:37:22.208Z,-7.71
2023-02-08T06:39:50.546Z,-7.68
2023-02-08T06:42:19.193Z,-7.68
2023-02-08T06:44:55.134Z,-7.68
2023-02-08T06:47:27.942Z,-7.64
2023-02-08T06:49:58.093Z,-7.61
2023-02-08T06:52:28.130Z,-7.62
2023-02-08T06:54:58.247Z,-7.58
2023-02-08T06:57:28.385Z,-7.52
2023-02-08T06:59:58.441Z,-7.49
2023-02-08T07:02:28.644Z,-7.49
2023-02-08T07:04:58.787Z,-7.40
2023-02-08T07:07:28.876Z,-7.33
2023-02-08T07:09:58.930Z,-7.33
2023-02-08T07:12:29.005Z,-7.14
2023-02-08T07:14:59.041Z,-7.11
2023-02-08T07:17:29.149Z,-7.08
2023-02-08T07:19:59.217Z,-7.08
2023-02-08T07:22:29.253Z,-6.89
2023-02-08T07:24:59.326Z,-6.96
2023-02-08T07:27:29.646Z,-6.92
2023-02-08T07:29:59.733Z,-6.77
2023-02-08T07:32:29.865Z,-6.73
2023-02-08T07:34:58.422Z,-6.67
2023-02-08T07:37:27.769Z,-6.66
2023-02-08T07:39:55.449Z,-6.66
2023-02-08T07:42:23.722Z,-6.52
2023-02-08T07:44:52.004Z,-6.48
2023-02-08T07:47:20.503Z,-6.46
2023-02-08T07:49:48.721Z,-6.41
2023-02-08T07:52:17.215Z,-6.27
2023-02-08T07:54:45.588Z,-6.33
2023-02-08T07:57:20.361Z,-6.23
2023-02-08T07:59:51.314Z,-6.09
2023-02-08T08:02:22.606Z,-6.08
2023-02-08T08:04:54.585Z,-5.86
2023-02-08T08:07:24.651Z,-5.72
2023-02-08T08:09:54.756Z,-5.70
2023-02-08T08:12:25.399Z,-5.55
2023-02-08T08:14:55.482Z,-5.54
2023-02-08T08:17:25.647Z,-5.50
2023-02-08T08:19:55.695Z,-5.36
2023-02-08T08:22:25.718Z,-5.26
2023-02-08T08:24:55.774Z,-5.08
2023-02-08T08:27:25.837Z,-5.06
2023-02-08T08:29:55.939Z,-5.03
2023-02-08T08:32:26.494Z,-4.78
2023-02-08T08:34:56.519Z,-4.64
2023-02-08T08:37:26.537Z,-4.62
2023-02-08T08:39:56.599Z,-4.61
2023-02-08T08:42:26.798Z,-4.68
2023-02-08T08:44:56.844Z,-4.69
2023-02-08T08:47:26.966Z,-4.44
2023-02-08T08:49:57.059Z,-4.38
2023-02-08T08:52:27.153Z,-4.24
2023-02-08T08:54:57.179Z,-3.98
2023-02-08T08:57:27.355Z,-3.58
2023-02-08T08:59:57.484Z,-3.35
2023-02-08T09:02:27.607Z,-3.30
2023-02-08T09:05:00.409Z,-2.85
2023-02-08T09:07:29.100Z,-2.51
2023-02-08T09:09:57.524Z,-2.36
2023-02-08T09:12:26.144Z,-2.40
2023-02-08T09:14:54.424Z,-2.10
2023-02-08T09:17:22.811Z,-2.20
2023-02-08T09:19:51.423Z,-1.78
2023-02-08T09:22:20.350Z,-1.64
2023-02-08T09:24:48.077Z,-1.74
2023-02-08T09:27:16.477Z,-1.69
2023-02-08T09:29:44.876Z,-1.68
2023-02-08T09:32:13.242Z,-1.65
2023-02-08T09:34:41.725Z,-1.88
2023-02-08T09:37:10.232Z,-1.67
2023-02-08T09:39:38.613Z,-1.78
2023-02-08T09:42:15.709Z,-1.78
2023-02-08T09:45:26.133Z,-1.67
2023-02-08T09:48:24.683Z,-1.33
2023-02-08T09:51:07.553Z,-1.82
2023-02-08T09:53:50.410Z,-1.91
2023-02-08T09:56:37.151Z,-1.54
2023-02-08T09:59:18.755Z,-1.53
2023-02-08T10:01:59.635Z,-1.16
2023-02-08T10:04:59.459Z,-0.79
2023-02-08T10:07:31.781Z,-0.54
2023-02-08T10:10:15.100Z,-0.84
2023-02-08T10:14:27.419Z,-0.88
2023-02-08T10:17:45.728Z,-0.79
2023-02-08T10:20:41.271Z,-0.77
2023-02-08T10:24:12.052Z,-0.84
2023-02-08T10:27:03.010Z,-0.46
2023-02-08T10:29:50.648Z,0.21
2023-02-08T10:32:44.848Z,0.19
2023-02-08T10:35:37.043Z,0.38
2023-02-08T10:38:45.468Z,0.69
2023-02-08T10:41:29.805Z,0.34
2023-02-08T10:44:26.020Z,0.93
2023-02-08T10:47:18.675Z,0.92
2023-02-08T10:50:30.157Z,0.81
2023-02-08T10:53:00.909Z,0.99
2023-02-08T10:55:45.989Z,1.05
2023-02-08T10:58:26.590Z,1.21
2023-02-08T11:00:58.491Z,1.27
2023-02-08T11:03:30.266Z,0.96
2023-02-08T11:05:58.604Z,0.84
2023-02-08T11:08:29.173Z,0.79
2023-02-08T11:11:10.761Z,0.64
2023-02-08T11:13:45.741Z,0.52
2023-02-08T11:16:26.041Z,0.75
2023-02-08T11:19:02.707Z,0.63
2023-02-08T11:21:42.314Z,0.31
2023-02-08T11:24:15.262Z,0.21
2023-02-08T11:26:44.843Z,-0.10
2023-02-08T11:29:27.219Z,0.12
2023-02-08T11:32:19.634Z,-0.04
2023-02-08T11:34:50.413Z,-0.33
2023-02-08T11:37:28.733Z,-0.51
2023-02-08T11:40:03.933Z,-0.08
2023-02-08T11:42:47.187Z,-0.09
2023-02-08T11:45:35.421Z,-0.14
2023-02-08T11:48:42.966Z,-0.39
2023-02-08T11:51:32.054Z,-0.34
2023-02-08T11:54:05.786Z,-0.24
2023-02-08T11:56:35.535Z,-0.24
2023-02-08T11:59:24.885Z,-0.40
2023-02-08T12:01:55.365Z,-0.43
2023-02-08T12:04:25.484Z,-0.38
2023-02-08T12:07:19.771Z,-0.15
2023-02-08T12:10:26.567Z,-0.17
2023-02-08T12:13:33.802Z,0.06
2023-02-08T12:17:27.274Z,-0.13
2023-02-08T12:20:39.361Z,0.13
2023-02-08T12:23:59.257Z,0.11
2023-02-08T12:27:41.754Z,0.18
2023-02-08T12:30:59.710Z,0.17
2023-02-08T12:34:01.142Z,0.03
2023-02-08T12:37:57.795Z,0.14
2023-02-08T12:41:21.966Z,0.24
2023-02-08T12:44:34.603Z,0.03
2023-02-08T12:47:35.822Z,0.08
2023-02-08T12:50:47.849Z,0.20
2023-02-08T12:53:33.542Z,0.12
2023-02-08T12:56:19.092Z,0.13
2023-02-08T12:59:08.261Z,0.27
2023-02-08T13:01:52.486Z,0.30
2023-02-08T13:04:43.714Z,0.37
2023-02-08T13:07:35.423Z,0.40
2023-02-08T13:10:42.678Z,0.90
2023-02-08T13:13:26.234Z,0.98
2023-02-08T13:16:18.190Z,0.80
2023-02-08T13:19:21.066Z,0.92
2023-02-08T13:21:55.556Z,0.80
2023-02-08T13:24:42.413Z,0.89
2023-02-08T13:27:20.767Z,0.89
2023-02-08T13:29:53.238Z,0.71
2023-02-08T13:32:44.560Z,0.65
2023-02-08T13:35:30.321Z,0.76
2023-02-08T13:38:34.854Z,0.80
2023-02-08T13:41:31.813Z,0.78
2023-02-08T13:44:20.593Z,0.55
2023-02-08T13:46:52.567Z,0.59
2023-02-08T13:49:50.741Z,0.52
2023-02-08T13:52:48.017Z,0.58
2023-02-08T13:55:30.847Z,0.60
2023-02-08T13:58:27.224Z,0.55
2023-02-08T14:00:57.127Z,0.53
2023-02-08T14:03:32.345Z,0.68
2023-02-08T14:06:29.697Z,0.78
2023-02-08T14:09:23.925Z,0.88
2023-02-08T14:12:14.552Z,0.90
2023-02-08T14:15:14.417Z,1.15
2023-02-08T14:17:50.592Z,1.14
2023-02-08T14:20:41.646Z,0.94
2023-02-08T14:23:32.585Z,0.68
2023-02-08T14:26:21.230Z,0.69
2023-02-08T14:29:01.430Z,0.75
2023-02-08T14:31:43.273Z,0.69
2023-02-08T14:34:35.577Z,0.43
2023-02-08T14:37:33.365Z,0.46
2023-02-08T14:40:24.715Z,0.39
2023-02-08T14:43:37.556Z,0.32
2023-02-08T14:46:39.157Z,0.28
2023-02-08T14:49:17.810Z,0.26
2023-02-08T14:52:02.820Z,0.17
2023-02-08T14:54:50.471Z,-0.04
2023-02-08T14:57:31.728Z,-0.07
2023-02-08T15:00:22.456Z,-0.03
2023-02-08T15:02:56.007Z,-0.12
2023-02-08T15:05:35.827Z,-0.07
2023-02-08T15:08:06.154Z,-0.26
2023-02-08T15:10:45.197Z,-0.32
2023-02-08T15:13:24.746Z,-0.34
2023-02-08T15:15:58.846Z,-0.35
2023-02-08T15:18:33.304Z,-0.35
2023-02-08T15:21:22.353Z,-0.49
2023-02-08T15:24:23.870Z,-0.57
2023-02-08T15:26:57.482Z,-0.41
2023-02-08T15:29:42.860Z,-0.48
2023-02-08T15:32:21.932Z,-0.65
2023-02-08T15:35:03.400Z,-0.81
2023-02-08T15:37:35.519Z,-0.99
2023-02-08T15:40:05.962Z,-1.04
2023-02-08T15:42:44.260Z,-1.16
2023-02-08T15:45:40.681Z,-1.15
2023-02-08T15:48:13.713Z,-1.15
2023-02-08T15:50:44.245Z,-1.04
2023-02-08T15:53:16.874Z,-1.03
2023-02-08T15:56:02.556Z,-1.25
2023-02-08T15:58:55.428Z,-1.35
2023-02-08T16:01:25.486Z,-1.39
2023-02-08T16:04:12.388Z,-1.67
2023-02-08T16:06:59.798Z,-1.85
2023-02-08T16:09:30.354Z,-2.01
2023-02-08T16:12:01.544Z,-2.13
2023-02-08T16:14:43.896Z,-2.20
2023-02-08T16:17:48.898Z,-2.22
2023-02-08T16:20:35.358Z,-2.22
2023-02-08T16:23:30.045Z,-2.32
2023-02-08T16:26:32.293Z,-2.46
2023-02-08T16:29:05.890Z,-2.52
2023-02-08T16:31:36.389Z,-2.60
2023-02-08T16:34:18.288Z,-2.75
2023-02-08T16:36:52.871Z,-2.87
2023-02-08T16:39:46.857Z,-2.94
2023-02-08T16:42:44.235Z,-3.00
2023-02-08T16:45:20.788Z,-3.09
2023-02-08T16:47:58.414Z,-3.21
2023-02-08T16:50:30.396Z,-3.30
2023-02-08T16:53:04.623Z,-3.30
2023-02-08T16:55:38.409Z,-3.39
2023-02-08T16:58:15.905Z,-3.44
2023-02-08T17:00:46.440Z,-3.42
2023-02-08T17:03:16.856Z,-3.40
2023-02-08T17:05:47.670Z,-3.40
2023-02-08T17:08:21.740Z,-3.46
2023-02-08T17:10:52.062Z,-3.56
2023-02-08T17:13:24.529Z,-3.62
2023-02-08T17:15:54.993Z,-3.68
2023-02-08T17:18:25.080Z,-3.73
2023-02-08T17:20:59.681Z,-3.78
2023-02-08T17:23:29.763Z,-3.81
2023-02-08T17:25:58.311Z,-3.75
2023-02-08T17:28:27.873Z,-3.81
2023-02-08T17:30:55.204Z,-3.86
2023-02-08T17:33:23.495Z,-3.93
2023-02-08T17:35:53.892Z,-3.99
2023-02-08T17:38:23.424Z,-4.04
2023-02-08T17:40:51.821Z,-4.04
2023-02-08T17:43:20.459Z,-4.09
2023-02-08T17:45:48.755Z,-4.12
2023-02-08T17:48:17.568Z,-4.16
2023-02-08T17:50:50.982Z,-4.06
2023-02-08T17:53:21.222Z,-4.11
2023-02-08T17:55:52.590Z,-4.17
2023-02-08T17:58:22.680Z,-4.17
2023-02-08T18:00:52.769Z,-4.22
2023-02-08T18:03:22.856Z,-4.21
2023-02-08T18:05:59.614Z,-4.24
2023-02-08T18:08:29.670Z,-4.25
2023-02-08T18:11:12.945Z,-4.28
2023-02-08T18:13:43.018Z,-4.31
2023-02-08T18:16:22.930Z,-4.37
2023-02-08T18:18:55.589Z,-4.43
2023-02-08T18:21:26.528Z,-4.46
2023-02-08T18:23:55.745Z,-4.48
2023-02-08T18:26:25.921Z,-4.52
2023-02-08T18:28:56.425Z,-4.53
2023-02-08T18:31:26.787Z,-4.47
2023-02-08T18:33:57.587Z,-4.48
2023-02-08T18:36:26.576Z,-4.53
2023-02-08T18:38:57.262Z,-4.55
2023-02-08T18:41:30.930Z,-4.58
2023-02-08T18:44:00.360Z,-4.62
2023-02-08T18:46:30.145Z,-4.64
2023-02-08T18:49:00.158Z,-4.62
2023-02-08T18:51:31.818Z,-4.62
2023-02-08T18:54:01.225Z,-4.64
2023-02-08T18:56:33.191Z,-4.69
2023-02-08T18:59:03.149Z,-4.69
2023-02-08T19:01:33.302Z,-4.66
2023-02-08T19:04:04.852Z,-4.67
2023-02-08T19:06:37.757Z,-4.70
2023-02-08T19:09:09.317Z,-4.75
2023-02-08T19:11:41.313Z,-4.79
2023-02-08T19:14:15.870Z,-4.81
2023-02-08T19:16:45.032Z,-4.88
2023-02-08T19:19:12.817Z,-4.94
2023-02-08T19:21:42.738Z,-4.98
2023-02-08T19:24:15.328Z,-5.03
2023-02-08T19:26:43.559Z,-5.08
2023-02-08T19:29:21.903Z,-5.03
2023-02-08T19:31:51.934Z,-5.06
2023-02-08T19:34:21.810Z,-5.11
2023-02-08T19:36:55.133Z,-5.16
2023-02-08T19:39:27.777Z,-5.21
2023-02-08T19:41:58.980Z,-5.19
2023-02-08T19:44:30.502Z,-5.21
2023-02-08T19:46:59.898Z,-5.23
2023-02-08T19:49:28.555Z,-5.29
2023-02-08T19:51:57.100Z,-5.34
2023-02-08T19:54:25.489Z,-5.37
2023-02-08T19:56:54.893Z,-5.38
2023-02-08T19:59:34.159Z,-5.41
2023-02-08T20:02:06.317Z,-5.42
2023-02-08T20:04:34.816Z,-5.45
2023-02-08T20:07:06.193Z,-5.47
2023-02-08T20:09:37.299Z,-5.41
2023-02-08T20:12:10.290Z,-5.43
2023-02-08T20:14:40.266Z,-5.37
2023-02-08T20:17:10.159Z,-5.38
2023-02-08T20:19:39.943Z,-5.42
2023-02-08T20:22:09.786Z,-5.47
2023-02-08T20:24:39.620Z,-5.51
2023-02-08T20:27:09.412Z,-5.51
2023-02-08T20:29:39.345Z,-5.55
2023-02-08T20:32:09.786Z,-5.58
2023-02-08T20:34:47.422Z,-5.62
2023-02-08T20:37:23.107Z,-5.66
2023-02-08T20:39:51.134Z,-5.68
2023-02-08T20:42:19.761Z,-5.59
2023-02-08T20:44:48.071Z,-5.62
2023-02-08T20:47:19.236Z,-5.62
2023-02-08T20:49:50.151Z,-5.57
2023-02-08T20:52:19.920Z,-5.38
2023-02-08T20:54:49.668Z,-5.34
2023-02-08T20:57:19.545Z,-5.38
2023-02-08T20:59:53.496Z,-5.43
2023-02-08T21:02:24.628Z,-5.49
2023-02-08T21:04:54.322Z,-5.46
2023-02-08T21:07:24.101Z,-5.29
2023-02-08T21:09:53.939Z,-5.30
2023-02-08T21:12:25.889Z,-5.14
2023-02-08T21:14:55.514Z,-5.08
2023-02-08T21:17:25.470Z,-5.09
2023-02-08T21:19:55.230Z,-5.18
2023-02-08T21:22:24.978Z,-5.20
2023-02-08T21:24:55.007Z,-5.25
2023-02-08T21:27:24.818Z,-5.26
2023-02-08T21:29:54.760Z,-5.33
2023-02-08T21:32:24.742Z,-5.18
2023-02-08T21:34:54.504Z,-5.22
2023-02-08T21:37:24.281Z,-5.15
2023-02-08T21:39:54.055Z,-5.16
2023-02-08T21:42:24.092Z,-5.15
2023-02-08T21:44:53.848Z,-5.01
2023-02-08T21:47:23.573Z,-5.15
2023-02-08T21:50:12.072Z,-5.27
2023-02-08T21:53:00.685Z,-5.35
2023-02-08T21:55:30.202Z,-5.43
2023-02-08T21:57:59.940Z,-5.49
2023-02-08T22:00:28.458Z,-5.56
2023-02-08T22:02:56.840Z,-5.63
2023-02-08T22:05:25.207Z,-5.55
2023-02-08T22:07:58.151Z,-5.44
2023-02-08T22:10:32.168Z,-5.39
2023-02-08T22:13:00.534Z,-5.44
2023-02-08T22:15:31.234Z,-5.45
2023-02-08T22:18:03.656Z,-5.40
2023-02-08T22:20:32.624Z,-5.37
2023-02-08T22:23:03.388Z,-5.40
2023-02-08T22:25:32.894Z,-5.22
2023-02-08T22:28:02.999Z,-5.23
2023-02-08T22:30:33.155Z,-5.35
2023-02-08T22:33:03.440Z,-5.43
2023-02-08T22:35:33.462Z,-5.52
2023-02-08T22:38:03.553Z,-5.42
2023-02-08T22:40:33.765Z,-5.52
2023-02-08T22:43:03.919Z,-5.67
2023-02-08T22:45:34.079Z,-5.65
2023-02-08T22:48:06.733Z,-5.68
2023-02-08T22:50:38.213Z,-5.68
2023-02-08T22:53:08.173Z,-5.62
2023-02-08T22:55:35.415Z,-5.72
2023-02-08T22:58:05.473Z,-5.39
2023-02-08T23:00:35.562Z,-5.37
2023-02-08T23:03:05.864Z,-5.55
2023-02-08T23:05:45.586Z,-5.59
2023-02-08T23:08:17.139Z,-5.65
2023-02-08T23:10:46.235Z,-5.73
2023-02-08T23:13:14.667Z,-5.76
2023-02-08T23:15:44.932Z,-5.79
2023-02-08T23:18:13.935Z,-5.91
2023-02-08T23:20:42.629Z,-5.94
2023-02-08T23:23:10.870Z,-5.98
2023-02-08T23:25:41.207Z,-5.95
2023-02-08T23:28:13.284Z,-5.95
2023-02-08T23:30:44.285Z,-5.86
2023-02-08T23:33:14.632Z,-5.89
2023-02-08T23:35:44.664Z,-5.88
2023-02-08T23:38:14.769Z,-5.89
2023-02-08T23:40:45.145Z,-5.83
2023-02-08T23:43:15.351Z,-5.86
2023-02-08T23:45:45.379Z,-6.01
2023-02-08T23:48:15.419Z,-6.04
2023-02-08T23:50:45.705Z,-6.11
2023-02-08T23:53:15.935Z,-6.15
2023-02-08T23:55:45.999Z,-6.19
2023-02-08T23:58:16.076Z,-6.23
